PRG weather

Václav Havel Airport Prague
Prague, Prague (capital city), Czechia

Public forecast

Using degrees Celsius for public forecast. Weather courtesy of forecast.io.

Current aviation weather report (METAR) for Václav Havel Airport Prague

Retrieved 2019/10/23 01:30 UTC (0 seconds ago):

LKPR 230130Z 01002KT 1800 BR OVC001 12/12 Q1022 TEMPO 0900 FG

Aviation forecast (TAF) for Václav Havel Airport Prague

Retrieved 2019-10-23 00:15 UTC (1 hour ago):

TAF LKPR 222300Z 2300/2406 VRB02KT 3000 BR OVC030 TEMPO 2300/2308 1400 BR BKN012 PROB30 TEMPO 2303/2307 0700 FG BKN006 BECMG 2309/2311 09006KT 6000 NSC BECMG 2316/2318 1200 BR SCT002 TEMPO 2318/2406 0600 FG OVC002 PROB40 TEMPO 2320/2406 0300 FG VV001